PWSweather.com
Personal Weather Stations
Station Observations
KVTSWANT6
Maquam ShoreCamp Maquam, Swanton, VT 05488

Maquam ShoreCamp MaquamSwanton, VT 05488

Lat: 44.90250015, Lon: -73.16666412

Elevation: 109

Station Type: W-1090

Latest ConditionsUpdated 11:20:01 PM EDT Wednesday, Sep 17, 2014
Currently Today's Max Today's Min Today's Average
Temperature 63.1°F17.3°C 67.1°F19.5°C 50.4°F10.2°C 59.4°F15.2°C
Dew Point 55.1°F12.8°C 55.6°F13.1°C 48.6°F9.2°C 51.7°F10.9°C
Winds 13.0 mph S20.9 kmh S 13.0 mph S20.9 kmh S - 5.3 mph 8.5 kmh
Wind Gusts 18.3 mph29.5 kmh 18.3 mph29.5 kmh - -
Humidity 75% 97% 55% 77%
Pressure 30.19 in1022.4 mb 30.29 in1025.7 mb 30.18 in1022.0 mb -
Hour Temp Dew Point Humidity Winds Wind Gusts Pressure Precip Precip Rate Daily Precip Total
11:20 PM 63.1°F17.3°C 55.1°F12.8°C 75% 13.0 mph S20.9 kmh S 18.3 mph29.5 kmh 30.19 in1022.4 mb 0.00 in0.0 mm 0.00 in/hr0.0 mm/hr 0.00 in0.0 mm
11:10 PM 63.1°F17.3°C 54.7°F12.6°C 74% 9.2 mph S14.8 kmh S 17.4 mph28.0 kmh 30.19 in1022.4 mb 0.00 in0.0 mm 0.00 in/hr0.0 mm/hr 0.00 in0.0 mm
11:00 PM 63.1°F17.3°C 54.4°F12.4°C 73% 12.1 mph S19.5 kmh S 16.8 mph27.0 kmh 30.19 in1022.4 mb 0.00 in0.0 mm 0.00 in/hr0.0 mm/hr 0.00 in0.0 mm
10:50 PM 63.3°F17.4°C 55.3°F12.9°C 75% 12.1 mph S19.5 kmh S 18.3 mph29.5 kmh 30.19 in1022.4 mb 0.00 in0.0 mm 0.00 in/hr0.0 mm/hr 0.00 in0.0 mm
10:40 PM 62.2°F16.8°C 54.6°F12.6°C 76% 11.4 mph S18.3 kmh S 14.5 mph23.3 kmh 30.19 in1022.4 mb 0.00 in0.0 mm 0.00 in/hr0.0 mm/hr 0.00 in0.0 mm
10:30 PM 61.3°F16.3°C 53.7°F12.1°C 76% 2.2 mph SSE3.5 kmh SSE 12.1 mph19.5 kmh 30.19 in1022.4 mb 0.00 in0.0 mm 0.00 in/hr0.0 mm/hr 0.00 in0.0 mm
10:20 PM 60.3°F15.7°C 53.4°F11.9°C 78% 2.2 mph SE3.5 kmh SE 6.0 mph9.7 kmh 30.19 in1022.4 mb 0.00 in0.0 mm 0.00 in/hr0.0 mm/hr 0.00 in0.0 mm
10:10 PM 60.6°F15.9°C 53.4°F11.9°C 77% 3.1 mph SSE5.0 kmh SSE 5.4 mph8.7 kmh 30.19 in1022.4 mb 0.00 in0.0 mm 0.00 in/hr0.0 mm/hr 0.00 in0.0 mm
10:00 PM 61.0°F16.1°C 53.0°F11.7°C 75% 2.2 mph SSE3.5 kmh SSE 5.4 mph8.7 kmh 30.19 in1022.4 mb 0.00 in0.0 mm 0.00 in/hr0.0 mm/hr 0.00 in0.0 mm
09:50 PM 62.4°F16.9°C 52.9°F11.6°C 71% 1.6 mph S2.6 kmh S 16.8 mph27.0 kmh 30.20 in1022.7 mb 0.00 in0.0 mm 0.00 in/hr0.0 mm/hr 0.00 in0.0 mm
09:40 PM 64.2°F17.9°C 54.2°F12.3°C 70% 10.7 mph S17.2 kmh S 18.3 mph29.5 kmh 30.19 in1022.4 mb 0.00 in0.0 mm 0.00 in/hr0.0 mm/hr 0.00 in0.0 mm
09:30 PM 63.3°F17.4°C 55.6°F13.1°C 76% 9.8 mph S15.8 kmh S 15.2 mph24.5 kmh 30.20 in1022.7 mb 0.00 in0.0 mm 0.00 in/hr0.0 mm/hr 0.00 in0.0 mm
09:20 PM 61.5°F16.4°C 52.8°F11.6°C 73% 2.2 mph S3.5 kmh S 8.3 mph13.4 kmh 30.19 in1022.4 mb 0.00 in0.0 mm 0.00 in/hr0.0 mm/hr 0.00 in0.0 mm
09:10 PM 61.3°F16.3°C 53.0°F11.7°C 74% 2.2 mph S3.5 kmh S 8.3 mph13.4 kmh 30.19 in1022.4 mb 0.00 in0.0 mm 0.00 in/hr0.0 mm/hr 0.00 in0.0 mm
09:00 PM 61.2°F16.2°C 52.8°F11.6°C 74% 3.1 mph SE5.0 kmh SE 5.4 mph8.7 kmh 30.19 in1022.4 mb 0.00 in0.0 mm 0.00 in/hr0.0 mm/hr 0.00 in0.0 mm
08:50 PM 61.0°F16.1°C 53.0°F11.7°C 75% 2.2 mph SE3.5 kmh SE 4.5 mph7.2 kmh 30.19 in1022.4 mb 0.00 in0.0 mm 0.00 in/hr0.0 mm/hr 0.00 in0.0 mm
08:40 PM 61.2°F16.2°C 53.2°F11.8°C 75% 2.2 mph SE3.5 kmh SE 4.5 mph7.2 kmh 30.20 in1022.7 mb 0.00 in0.0 mm 0.00 in/hr0.0 mm/hr 0.00 in0.0 mm
08:30 PM 61.3°F16.3°C 53.4°F11.9°C 75% 0.7 mph SE1.1 kmh SE 6.0 mph9.7 kmh 30.19 in1022.4 mb 0.00 in0.0 mm 0.00 in/hr0.0 mm/hr 0.00 in0.0 mm
08:20 PM 61.3°F16.3°C 53.0°F11.7°C 74% 3.1 mph SE5.0 kmh SE 6.0 mph9.7 kmh 30.19 in1022.4 mb 0.00 in0.0 mm 0.00 in/hr0.0 mm/hr 0.00 in0.0 mm
08:10 PM 61.5°F16.4°C 52.8°F11.6°C 73% 3.1 mph SE5.0 kmh SE 6.0 mph9.7 kmh 30.19 in1022.4 mb 0.00 in0.0 mm 0.00 in/hr0.0 mm/hr 0.00 in0.0 mm
08:00 PM 61.7°F16.5°C 52.6°F11.4°C 72% 2.2 mph SE3.5 kmh SE 5.4 mph8.7 kmh 30.19 in1022.4 mb 0.00 in0.0 mm 0.00 in/hr0.0 mm/hr 0.00 in0.0 mm
07:50 PM 61.7°F16.5°C 52.2°F11.2°C 71% 2.2 mph SSE3.5 kmh SSE 5.4 mph8.7 kmh 30.19 in1022.4 mb 0.00 in0.0 mm 0.00 in/hr0.0 mm/hr 0.00 in0.0 mm
07:40 PM 61.7°F16.5°C 51.8°F11.0°C 70% 3.1 mph SE5.0 kmh SE 4.5 mph7.2 kmh 30.19 in1022.4 mb 0.00 in0.0 mm 0.00 in/hr0.0 mm/hr 0.00 in0.0 mm
07:30 PM 61.7°F16.5°C 51.8°F11.0°C 70% 3.1 mph SE5.0 kmh SE 5.4 mph8.7 kmh 30.19 in1022.4 mb 0.00 in0.0 mm 0.00 in/hr0.0 mm/hr 0.00 in0.0 mm
07:20 PM 61.7°F16.5°C 51.4°F10.8°C 69% 3.8 mph SSE6.1 kmh SSE 6.0 mph9.7 kmh 30.19 in1022.4 mb 0.00 in0.0 mm 0.00 in/hr0.0 mm/hr 0.00 in0.0 mm
07:10 PM 61.9°F16.6°C 51.2°F10.7°C 68% 2.2 mph SE3.5 kmh SE 5.4 mph8.7 kmh 30.19 in1022.4 mb 0.00 in0.0 mm 0.00 in/hr0.0 mm/hr 0.00 in0.0 mm
07:00 PM 61.9°F16.6°C 51.6°F10.9°C 69% 3.1 mph SE5.0 kmh SE 4.5 mph7.2 kmh 30.19 in1022.4 mb 0.00 in0.0 mm 0.00 in/hr0.0 mm/hr 0.00 in0.0 mm
06:50 PM 62.1°F16.7°C 52.2°F11.2°C 70% 2.2 mph SE3.5 kmh SE 3.8 mph6.1 kmh 30.18 in1022.0 mb 0.00 in0.0 mm 0.00 in/hr0.0 mm/hr 0.00 in0.0 mm
06:40 PM 62.4°F16.9°C 52.9°F11.6°C 71% 1.6 mph SE2.6 kmh SE 3.8 mph6.1 kmh 30.19 in1022.4 mb 0.00 in0.0 mm 0.00 in/hr0.0 mm/hr 0.00 in0.0 mm
06:30 PM 63.3°F17.4°C 52.6°F11.4°C 68% 1.6 mph SE2.6 kmh SE 3.8 mph6.1 kmh 30.19 in1022.4 mb 0.00 in0.0 mm 0.00 in/hr0.0 mm/hr 0.00 in0.0 mm
06:20 PM 63.5°F17.5°C 52.0°F11.1°C 66% 2.2 mph SE3.5 kmh SE 3.8 mph6.1 kmh 30.19 in1022.4 mb 0.00 in0.0 mm 0.00 in/hr0.0 mm/hr 0.00 in0.0 mm
06:10 PM 64.0°F17.8°C 52.1°F11.2°C 65% 0.7 mph SE1.1 kmh SE 4.5 mph7.2 kmh 30.19 in1022.4 mb 0.00 in0.0 mm 0.00 in/hr0.0 mm/hr 0.00 in0.0 mm
06:00 PM 64.2°F17.9°C 51.4°F10.8°C 63% 2.2 mph SSE3.5 kmh SSE 5.4 mph8.7 kmh 30.19 in1022.4 mb 0.00 in0.0 mm 0.00 in/hr0.0 mm/hr 0.00 in0.0 mm
05:50 PM 64.6°F18.1°C 51.7°F10.9°C 63% 1.6 mph SE2.6 kmh SE 3.8 mph6.1 kmh 30.19 in1022.4 mb 0.00 in0.0 mm 0.00 in/hr0.0 mm/hr 0.00 in0.0 mm
05:40 PM 64.8°F18.2°C 51.9°F11.1°C 63% 0.7 mph S1.1 kmh S 7.6 mph12.2 kmh 30.19 in1022.4 mb 0.00 in0.0 mm 0.00 in/hr0.0 mm/hr 0.00 in0.0 mm
05:30 PM 65.1°F18.4°C 52.7°F11.5°C 64% 6.0 mph S9.7 kmh S 13.0 mph20.9 kmh 30.19 in1022.4 mb 0.00 in0.0 mm 0.00 in/hr0.0 mm/hr 0.00 in0.0 mm
05:20 PM 65.3°F18.5°C 54.1°F12.3°C 67% 6.9 mph S11.1 kmh S 13.6 mph21.9 kmh 30.19 in1022.4 mb 0.00 in0.0 mm 0.00 in/hr0.0 mm/hr 0.00 in0.0 mm
05:10 PM 65.3°F18.5°C 52.8°F11.6°C 64% 9.2 mph S14.8 kmh S 13.0 mph20.9 kmh 30.19 in1022.4 mb 0.00 in0.0 mm 0.00 in/hr0.0 mm/hr 0.00 in0.0 mm
05:00 PM 65.3°F18.5°C 53.7°F12.1°C 66% 7.6 mph S12.2 kmh S 13.0 mph20.9 kmh 30.19 in1022.4 mb 0.00 in0.0 mm 0.00 in/hr0.0 mm/hr 0.00 in0.0 mm
04:50 PM 65.3°F18.5°C 53.7°F12.1°C 66% 8.3 mph S13.4 kmh S 13.6 mph21.9 kmh 30.20 in1022.7 mb 0.00 in0.0 mm 0.00 in/hr0.0 mm/hr 0.00 in0.0 mm
04:40 PM 65.3°F18.5°C 53.7°F12.1°C 66% 8.3 mph S13.4 kmh S 11.4 mph18.3 kmh 30.19 in1022.4 mb 0.00 in0.0 mm 0.00 in/hr0.0 mm/hr 0.00 in0.0 mm
04:30 PM 65.7°F18.7°C 51.4°F10.8°C 60% 4.5 mph S7.2 kmh S 9.2 mph14.8 kmh 30.19 in1022.4 mb 0.00 in0.0 mm 0.00 in/hr0.0 mm/hr 0.00 in0.0 mm
04:20 PM 66.0°F18.9°C 50.8°F10.4°C 58% 4.5 mph S7.2 kmh S 7.6 mph12.2 kmh 30.20 in1022.7 mb 0.00 in0.0 mm 0.00 in/hr0.0 mm/hr 0.00 in0.0 mm
04:10 PM 65.8°F18.8°C 50.2°F10.1°C 57% 2.2 mph S3.5 kmh S 9.8 mph15.8 kmh 30.20 in1022.7 mb 0.00 in0.0 mm 0.00 in/hr0.0 mm/hr 0.00 in0.0 mm
04:00 PM 65.7°F18.7°C 50.0°F10.0°C 57% 6.0 mph S9.7 kmh S 9.8 mph15.8 kmh 30.20 in1022.7 mb 0.00 in0.0 mm 0.00 in/hr0.0 mm/hr 0.00 in0.0 mm
03:50 PM 65.5°F18.6°C 50.3°F10.2°C 58% 6.0 mph S9.7 kmh S 9.2 mph14.8 kmh 30.20 in1022.7 mb 0.00 in0.0 mm 0.00 in/hr0.0 mm/hr 0.00 in0.0 mm
03:40 PM 65.5°F18.6°C 49.9°F9.9°C 57% 6.0 mph SSW9.7 kmh SSW 10.7 mph17.2 kmh 30.21 in1023.0 mb 0.00 in0.0 mm 0.00 in/hr0.0 mm/hr 0.00 in0.0 mm
03:30 PM 65.7°F18.7°C 51.4°F10.8°C 60% 6.9 mph S11.1 kmh S 9.8 mph15.8 kmh 30.21 in1023.0 mb 0.00 in0.0 mm 0.00 in/hr0.0 mm/hr 0.00 in0.0 mm
03:20 PM 65.7°F18.7°C 51.0°F10.6°C 59% 6.9 mph S11.1 kmh S 13.0 mph20.9 kmh 30.21 in1023.0 mb 0.00 in0.0 mm 0.00 in/hr0.0 mm/hr 0.00 in0.0 mm
03:10 PM 66.6°F19.2°C 49.9°F9.9°C 55% 4.5 mph S7.2 kmh S 10.7 mph17.2 kmh 30.21 in1023.0 mb 0.00 in0.0 mm 0.00 in/hr0.0 mm/hr 0.00 in0.0 mm
03:00 PM 67.1°F19.5°C 50.9°F10.5°C 56% 4.5 mph SSW7.2 kmh SSW 11.4 mph18.3 kmh 30.21 in1023.0 mb 0.00 in0.0 mm 0.00 in/hr0.0 mm/hr 0.00 in0.0 mm
02:50 PM 66.9°F19.4°C 51.2°F10.7°C 57% 6.0 mph S9.7 kmh S 9.8 mph15.8 kmh 30.21 in1023.0 mb 0.00 in0.0 mm 0.00 in/hr0.0 mm/hr 0.00 in0.0 mm
02:40 PM 66.7°F19.3°C 51.5°F10.8°C 58% 6.0 mph S9.7 kmh S 10.7 mph17.2 kmh 30.21 in1023.0 mb 0.00 in0.0 mm 0.00 in/hr0.0 mm/hr 0.00 in0.0 mm
02:30 PM 66.2°F19.0°C 52.4°F11.3°C 61% 6.9 mph SSW11.1 kmh SSW 11.4 mph18.3 kmh 30.22 in1023.4 mb 0.00 in0.0 mm 0.00 in/hr0.0 mm/hr 0.00 in0.0 mm
02:20 PM 65.8°F18.8°C 50.7°F10.4°C 58% 6.0 mph S9.7 kmh S 10.7 mph17.2 kmh 30.22 in1023.4 mb 0.00 in0.0 mm 0.00 in/hr0.0 mm/hr 0.00 in0.0 mm
02:10 PM 65.5°F18.6°C 52.1°F11.2°C 62% 6.0 mph SSW9.7 kmh SSW 9.8 mph15.8 kmh 30.22 in1023.4 mb 0.00 in0.0 mm 0.00 in/hr0.0 mm/hr 0.00 in0.0 mm
02:00 PM 64.9°F18.3°C 50.3°F10.2°C 59% 6.0 mph S9.7 kmh S 12.1 mph19.5 kmh 30.23 in1023.7 mb 0.00 in0.0 mm 0.00 in/hr0.0 mm/hr 0.00 in0.0 mm
01:50 PM 64.9°F18.3°C 51.2°F10.7°C 61% 7.6 mph S12.2 kmh S 11.4 mph18.3 kmh 30.23 in1023.7 mb 0.00 in0.0 mm 0.00 in/hr0.0 mm/hr 0.00 in0.0 mm
01:40 PM 65.1°F18.4°C 50.5°F10.3°C 59% 7.6 mph S12.2 kmh S 11.4 mph18.3 kmh 30.24 in1024.0 mb 0.00 in0.0 mm 0.00 in/hr0.0 mm/hr 0.00 in0.0 mm
01:30 PM 65.7°F18.7°C 51.0°F10.6°C 59% 6.9 mph S11.1 kmh S 12.1 mph19.5 kmh 30.23 in1023.7 mb 0.00 in0.0 mm 0.00 in/hr0.0 mm/hr 0.00 in0.0 mm
01:20 PM 64.2°F17.9°C 50.5°F10.3°C 61% 7.6 mph S12.2 kmh S 13.0 mph20.9 kmh 30.24 in1024.0 mb 0.00 in0.0 mm 0.00 in/hr0.0 mm/hr 0.00 in0.0 mm
01:10 PM 64.0°F17.8°C 49.4°F9.7°C 59% 9.8 mph S15.8 kmh S 13.0 mph20.9 kmh 30.24 in1024.0 mb 0.00 in0.0 mm 0.00 in/hr0.0 mm/hr 0.00 in0.0 mm
01:00 PM 63.1°F17.3°C 48.6°F9.2°C 59% 6.9 mph S11.1 kmh S 13.0 mph20.9 kmh 30.25 in1024.4 mb 0.00 in0.0 mm 0.00 in/hr0.0 mm/hr 0.00 in0.0 mm
12:50 PM 63.3°F17.4°C 50.1°F10.1°C 62% 8.3 mph S13.4 kmh S 13.0 mph20.9 kmh 30.25 in1024.4 mb 0.00 in0.0 mm 0.00 in/hr0.0 mm/hr 0.00 in0.0 mm
12:40 PM 62.6°F17.0°C 49.4°F9.7°C 62% 6.0 mph S9.7 kmh S 13.0 mph20.9 kmh 30.25 in1024.4 mb 0.00 in0.0 mm 0.00 in/hr0.0 mm/hr 0.00 in0.0 mm
12:30 PM 62.1°F16.7°C 50.6°F10.3°C 66% 8.3 mph S13.4 kmh S 12.1 mph19.5 kmh 30.25 in1024.4 mb 0.00 in0.0 mm 0.00 in/hr0.0 mm/hr 0.00 in0.0 mm
12:20 PM 61.7°F16.5°C 51.0°F10.6°C 68% 7.6 mph S12.2 kmh S 13.0 mph20.9 kmh 30.26 in1024.7 mb 0.00 in0.0 mm 0.00 in/hr0.0 mm/hr 0.00 in0.0 mm
12:10 PM 61.3°F16.3°C 50.7°F10.4°C 68% 6.0 mph S9.7 kmh S 14.5 mph23.3 kmh 30.26 in1024.7 mb 0.00 in0.0 mm 0.00 in/hr0.0 mm/hr 0.00 in0.0 mm
12:00 PM 61.0°F16.1°C 50.0°F10.0°C 67% 8.3 mph S13.4 kmh S 13.6 mph21.9 kmh 30.26 in1024.7 mb 0.00 in0.0 mm 0.00 in/hr0.0 mm/hr 0.00 in0.0 mm
11:50 AM 60.6°F15.9°C 51.9°F11.1°C 73% 8.3 mph S13.4 kmh S 13.0 mph20.9 kmh 30.27 in1025.1 mb 0.00 in0.0 mm 0.00 in/hr0.0 mm/hr 0.00 in0.0 mm
11:40 AM 60.4°F15.8°C 52.1°F11.2°C 74% 6.9 mph S11.1 kmh S 12.1 mph19.5 kmh 30.27 in1025.1 mb 0.00 in0.0 mm 0.00 in/hr0.0 mm/hr 0.00 in0.0 mm
11:30 AM 59.9°F15.5°C 52.3°F11.3°C 76% 4.5 mph S7.2 kmh S 13.6 mph21.9 kmh 30.27 in1025.1 mb 0.00 in0.0 mm 0.00 in/hr0.0 mm/hr 0.00 in0.0 mm
11:20 AM 59.7°F15.4°C 52.5°F11.4°C 77% 10.7 mph S17.2 kmh S 14.5 mph23.3 kmh 30.27 in1025.1 mb 0.00 in0.0 mm 0.00 in/hr0.0 mm/hr 0.00 in0.0 mm
11:10 AM 59.0°F15.0°C 52.9°F11.6°C 80% 10.7 mph S17.2 kmh S 13.6 mph21.9 kmh 30.27 in1025.1 mb 0.00 in0.0 mm 0.00 in/hr0.0 mm/hr 0.00 in0.0 mm
11:00 AM 58.6°F14.8°C 52.8°F11.6°C 81% 11.4 mph S18.3 kmh S 13.6 mph21.9 kmh 30.28 in1025.4 mb 0.00 in0.0 mm 0.00 in/hr0.0 mm/hr 0.00 in0.0 mm
10:50 AM 58.5°F14.7°C 53.0°F11.7°C 82% 10.7 mph S17.2 kmh S 13.6 mph21.9 kmh 30.28 in1025.4 mb 0.00 in0.0 mm 0.00 in/hr0.0 mm/hr 0.00 in0.0 mm
10:40 AM 58.1°F14.5°C 52.6°F11.4°C 82% 10.7 mph S17.2 kmh S 13.6 mph21.9 kmh 30.28 in1025.4 mb 0.00 in0.0 mm 0.00 in/hr0.0 mm/hr 0.00 in0.0 mm
10:30 AM 57.9°F14.4°C 53.4°F11.9°C 85% 9.2 mph S14.8 kmh S 14.5 mph23.3 kmh 30.28 in1025.4 mb 0.00 in0.0 mm 0.00 in/hr0.0 mm/hr 0.00 in0.0 mm
10:20 AM 57.9°F14.4°C 54.1°F12.3°C 87% 10.7 mph S17.2 kmh S 14.5 mph23.3 kmh 30.28 in1025.4 mb 0.00 in0.0 mm 0.00 in/hr0.0 mm/hr 0.00 in0.0 mm
10:10 AM 57.7°F14.3°C 52.9°F11.6°C 84% 8.3 mph S13.4 kmh S 13.0 mph20.9 kmh 30.28 in1025.4 mb 0.00 in0.0 mm 0.00 in/hr0.0 mm/hr 0.00 in0.0 mm
10:00 AM 57.7°F14.3°C 53.9°F12.2°C 87% 7.6 mph S12.2 kmh S 13.0 mph20.9 kmh 30.28 in1025.4 mb 0.00 in0.0 mm 0.00 in/hr0.0 mm/hr 0.00 in0.0 mm
09:50 AM 57.0°F13.9°C 54.1°F12.3°C 90% 8.3 mph S13.4 kmh S 14.5 mph23.3 kmh 30.28 in1025.4 mb 0.00 in0.0 mm 0.00 in/hr0.0 mm/hr 0.00 in0.0 mm
09:40 AM 56.8°F13.8°C 53.6°F12.0°C 89% 9.2 mph SSW14.8 kmh SSW 13.0 mph20.9 kmh 30.28 in1025.4 mb 0.00 in0.0 mm 0.00 in/hr0.0 mm/hr 0.00 in0.0 mm
09:30 AM 56.3°F13.5°C 52.5°F11.4°C 87% 8.3 mph S13.4 kmh S 10.7 mph17.2 kmh 30.29 in1025.7 mb 0.00 in0.0 mm 0.00 in/hr0.0 mm/hr 0.00 in0.0 mm
09:20 AM 56.3°F13.5°C 52.5°F11.4°C 87% 3.1 mph S5.0 kmh S 13.6 mph21.9 kmh 30.29 in1025.7 mb 0.00 in0.0 mm 0.00 in/hr0.0 mm/hr 0.00 in0.0 mm
09:10 AM 56.3°F13.5°C 52.8°F11.6°C 88% 9.2 mph S14.8 kmh S 12.1 mph19.5 kmh 30.29 in1025.7 mb 0.00 in0.0 mm 0.00 in/hr0.0 mm/hr 0.00 in0.0 mm
09:00 AM 56.5°F13.6°C 52.4°F11.3°C 86% 7.6 mph S12.2 kmh S 14.5 mph23.3 kmh 30.29 in1025.7 mb 0.00 in0.0 mm 0.00 in/hr0.0 mm/hr 0.00 in0.0 mm
08:50 AM 56.5°F13.6°C 51.1°F10.6°C 82% 8.3 mph S13.4 kmh S 14.5 mph23.3 kmh 30.29 in1025.7 mb 0.00 in0.0 mm 0.00 in/hr0.0 mm/hr 0.00 in0.0 mm
08:40 AM 56.1°F13.4°C 51.7°F10.9°C 85% 9.2 mph S14.8 kmh S 16.8 mph27.0 kmh 30.29 in1025.7 mb 0.00 in0.0 mm 0.00 in/hr0.0 mm/hr 0.00 in0.0 mm
08:30 AM 55.8°F13.2°C 51.3°F10.7°C 85% 9.8 mph S15.8 kmh S 15.2 mph24.5 kmh 30.29 in1025.7 mb 0.00 in0.0 mm 0.00 in/hr0.0 mm/hr 0.00 in0.0 mm
08:20 AM 55.6°F13.1°C 51.5°F10.8°C 86% 9.8 mph S15.8 kmh S 13.6 mph21.9 kmh 30.29 in1025.7 mb 0.00 in0.0 mm 0.00 in/hr0.0 mm/hr 0.00 in0.0 mm
08:10 AM 55.6°F13.1°C 51.5°F10.8°C 86% 7.6 mph S12.2 kmh S 14.5 mph23.3 kmh 30.28 in1025.4 mb 0.00 in0.0 mm 0.00 in/hr0.0 mm/hr 0.00 in0.0 mm
08:00 AM 55.4°F13.0°C 51.9°F11.1°C 88% 10.7 mph S17.2 kmh S 13.6 mph21.9 kmh 30.28 in1025.4 mb 0.00 in0.0 mm 0.00 in/hr0.0 mm/hr 0.00 in0.0 mm
07:50 AM 55.4°F13.0°C 51.9°F11.1°C 88% 9.2 mph S14.8 kmh S 15.9 mph25.6 kmh 30.28 in1025.4 mb 0.00 in0.0 mm 0.00 in/hr0.0 mm/hr 0.00 in0.0 mm
07:40 AM 55.2°F12.9°C 51.7°F10.9°C 88% 9.2 mph SSW14.8 kmh SSW 15.2 mph24.5 kmh 30.28 in1025.4 mb 0.00 in0.0 mm 0.00 in/hr0.0 mm/hr 0.00 in0.0 mm
07:30 AM 54.0°F12.2°C 51.7°F10.9°C 92% 6.9 mph S11.1 kmh S 9.8 mph15.8 kmh 30.28 in1025.4 mb 0.00 in0.0 mm 0.00 in/hr0.0 mm/hr 0.00 in0.0 mm
07:20 AM 52.2°F11.2°C 50.5°F10.3°C 94% 1.6 mph SSE2.6 kmh SSE 6.0 mph9.7 kmh 30.28 in1025.4 mb 0.00 in0.0 mm 0.00 in/hr0.0 mm/hr 0.00 in0.0 mm
07:10 AM 51.3°F10.7°C 50.2°F10.1°C 96% 2.2 mph SE3.5 kmh SE 4.5 mph7.2 kmh 30.29 in1025.7 mb 0.00 in0.0 mm 0.00 in/hr0.0 mm/hr 0.00 in0.0 mm
07:00 AM 50.7°F10.4°C 49.9°F9.9°C 97% 2.2 mph SE3.5 kmh SE 3.8 mph6.1 kmh 30.28 in1025.4 mb 0.00 in0.0 mm 0.00 in/hr0.0 mm/hr 0.00 in0.0 mm
06:50 AM 50.5°F10.3°C 49.4°F9.7°C 96% 1.6 mph SE2.6 kmh SE 5.4 mph8.7 kmh 30.27 in1025.1 mb 0.00 in0.0 mm 0.00 in/hr0.0 mm/hr 0.00 in0.0 mm
06:40 AM 50.9°F10.5°C 50.1°F10.1°C 97% 2.2 mph SE3.5 kmh SE 6.0 mph9.7 kmh 30.27 in1025.1 mb 0.00 in0.0 mm 0.00 in/hr0.0 mm/hr 0.00 in0.0 mm
06:30 AM 50.4°F10.2°C 49.5°F9.7°C 97% 2.2 mph SE3.5 kmh SE 4.5 mph7.2 kmh 30.27 in1025.1 mb 0.00 in0.0 mm 0.00 in/hr0.0 mm/hr 0.00 in0.0 mm
06:20 AM 50.7°F10.4°C 49.6°F9.8°C 96% 1.6 mph SE2.6 kmh SE 4.5 mph7.2 kmh 30.27 in1025.1 mb 0.00 in0.0 mm 0.00 in/hr0.0 mm/hr 0.00 in0.0 mm
06:10 AM 50.9°F10.5°C 50.1°F10.1°C 97% 1.6 mph SE2.6 kmh SE 3.8 mph6.1 kmh 30.27 in1025.1 mb 0.00 in0.0 mm 0.00 in/hr0.0 mm/hr 0.00 in0.0 mm
06:00 AM 50.7°F10.4°C 49.9°F9.9°C 97% 1.6 mph SE2.6 kmh SE 3.1 mph5.0 kmh 30.27 in1025.1 mb 0.00 in0.0 mm 0.00 in/hr0.0 mm/hr 0.00 in0.0 mm
05:50 AM 50.9°F10.5°C 49.8°F9.9°C 96% 1.6 mph SE2.6 kmh SE 4.5 mph7.2 kmh 30.27 in1025.1 mb 0.00 in0.0 mm 0.00 in/hr0.0 mm/hr 0.00 in0.0 mm
05:40 AM 50.9°F10.5°C 50.1°F10.1°C 97% 2.2 mph SE3.5 kmh SE 4.5 mph7.2 kmh 30.27 in1025.1 mb 0.00 in0.0 mm 0.00 in/hr0.0 mm/hr 0.00 in0.0 mm
05:30 AM 50.7°F10.4°C 49.9°F9.9°C 97% 2.2 mph SE3.5 kmh SE 3.8 mph6.1 kmh 30.26 in1024.7 mb 0.00 in0.0 mm 0.00 in/hr0.0 mm/hr 0.00 in0.0 mm
05:20 AM 50.9°F10.5°C 49.5°F9.7°C 95% 2.2 mph SE3.5 kmh SE 3.8 mph6.1 kmh 30.27 in1025.1 mb 0.00 in0.0 mm 0.00 in/hr0.0 mm/hr 0.00 in0.0 mm
05:10 AM 51.4°F10.8°C 49.8°F9.9°C 94% 2.2 mph SE3.5 kmh SE 3.8 mph6.1 kmh 30.26 in1024.7 mb 0.00 in0.0 mm 0.00 in/hr0.0 mm/hr 0.00 in0.0 mm
05:00 AM 52.3°F11.3°C 49.5°F9.7°C 90% 3.1 mph SE5.0 kmh SE 4.5 mph7.2 kmh 30.27 in1025.1 mb 0.00 in0.0 mm 0.00 in/hr0.0 mm/hr 0.00 in0.0 mm
04:50 AM 55.2°F12.9°C 49.5°F9.7°C 81% 3.1 mph SE5.0 kmh SE 10.7 mph17.2 kmh 30.27 in1025.1 mb 0.00 in0.0 mm 0.00 in/hr0.0 mm/hr 0.00 in0.0 mm
04:40 AM 58.5°F14.7°C 53.7°F12.1°C 84% 7.6 mph SSW12.2 kmh SSW 13.6 mph21.9 kmh 30.27 in1025.1 mb 0.00 in0.0 mm 0.00 in/hr0.0 mm/hr 0.00 in0.0 mm
04:30 AM 58.5°F14.7°C 53.0°F11.7°C 82% 6.9 mph SW11.1 kmh SW 14.5 mph23.3 kmh 30.27 in1025.1 mb 0.00 in0.0 mm 0.00 in/hr0.0 mm/hr 0.00 in0.0 mm
04:20 AM 58.6°F14.8°C 51.1°F10.6°C 76% 9.2 mph SW14.8 kmh SW 12.1 mph19.5 kmh 30.27 in1025.1 mb 0.00 in0.0 mm 0.00 in/hr0.0 mm/hr 0.00 in0.0 mm
04:10 AM 58.1°F14.5°C 50.6°F10.3°C 76% 5.4 mph SW8.7 kmh SW 12.1 mph19.5 kmh 30.27 in1025.1 mb 0.00 in0.0 mm 0.00 in/hr0.0 mm/hr 0.00 in0.0 mm
04:00 AM 53.6°F12.0°C 49.8°F9.9°C 87% 1.6 mph SE2.6 kmh SE 3.8 mph6.1 kmh 30.26 in1024.7 mb 0.00 in0.0 mm 0.00 in/hr0.0 mm/hr 0.00 in0.0 mm
03:50 AM 55.9°F13.3°C 50.5°F10.3°C 82% 2.2 mph SE3.5 kmh SE 3.8 mph6.1 kmh 30.26 in1024.7 mb 0.00 in0.0 mm 0.00 in/hr0.0 mm/hr 0.00 in0.0 mm
03:40 AM 58.8°F14.9°C 51.3°F10.7°C 76% 2.2 mph SW3.5 kmh SW 10.7 mph17.2 kmh 30.26 in1024.7 mb 0.00 in0.0 mm 0.00 in/hr0.0 mm/hr 0.00 in0.0 mm
03:30 AM 59.2°F15.1°C 52.0°F11.1°C 77% 6.9 mph SW11.1 kmh SW 9.8 mph15.8 kmh 30.26 in1024.7 mb 0.00 in0.0 mm 0.00 in/hr0.0 mm/hr 0.00 in0.0 mm
03:20 AM 59.0°F15.0°C 52.9°F11.6°C 80% 6.9 mph SW11.1 kmh SW 11.4 mph18.3 kmh 30.26 in1024.7 mb 0.00 in0.0 mm 0.00 in/hr0.0 mm/hr 0.00 in0.0 mm
03:10 AM 57.2°F14.0°C 54.0°F12.2°C 89% 6.9 mph S11.1 kmh S 11.4 mph18.3 kmh 30.26 in1024.7 mb 0.00 in0.0 mm 0.00 in/hr0.0 mm/hr 0.00 in0.0 mm
03:00 AM 55.4°F13.0°C 52.2°F11.2°C 89% 1.6 mph SE2.6 kmh SE 3.8 mph6.1 kmh 30.26 in1024.7 mb 0.00 in0.0 mm 0.00 in/hr0.0 mm/hr 0.00 in0.0 mm
02:50 AM 55.2°F12.9°C 52.0°F11.1°C 89% 2.2 mph SSE3.5 kmh SSE 5.4 mph8.7 kmh 30.25 in1024.4 mb 0.00 in0.0 mm 0.00 in/hr0.0 mm/hr 0.00 in0.0 mm
02:40 AM 55.6°F13.1°C 52.1°F11.2°C 88% 2.2 mph S3.5 kmh S 10.7 mph17.2 kmh 30.26 in1024.7 mb 0.00 in0.0 mm 0.00 in/hr0.0 mm/hr 0.00 in0.0 mm
02:30 AM 55.2°F12.9°C 51.7°F10.9°C 88% 1.6 mph SE2.6 kmh SE 5.4 mph8.7 kmh 30.25 in1024.4 mb 0.00 in0.0 mm 0.00 in/hr0.0 mm/hr 0.00 in0.0 mm
02:20 AM 54.3°F12.4°C 51.5°F10.8°C 90% 1.6 mph SE2.6 kmh SE 3.1 mph5.0 kmh 30.25 in1024.4 mb 0.00 in0.0 mm 0.00 in/hr0.0 mm/hr 0.00 in0.0 mm
02:10 AM 54.5°F12.5°C 51.3°F10.7°C 89% 0.7 mph SSE1.1 kmh SSE 3.8 mph6.1 kmh 30.25 in1024.4 mb 0.00 in0.0 mm 0.00 in/hr0.0 mm/hr 0.00 in0.0 mm
02:00 AM 52.5°F11.4°C 51.4°F10.8°C 96% 2.2 mph SE3.5 kmh SE 3.8 mph6.1 kmh 30.26 in1024.7 mb 0.00 in0.0 mm 0.00 in/hr0.0 mm/hr 0.00 in0.0 mm
01:50 AM 52.2°F11.2°C 50.8°F10.4°C 95% 2.2 mph E3.5 kmh E 3.8 mph6.1 kmh 30.25 in1024.4 mb 0.00 in0.0 mm 0.00 in/hr0.0 mm/hr 0.00 in0.0 mm
01:40 AM 52.0°F11.1°C 50.9°F10.5°C 96% 2.2 mph ESE3.5 kmh ESE 3.8 mph6.1 kmh 30.25 in1024.4 mb 0.00 in0.0 mm 0.00 in/hr0.0 mm/hr 0.00 in0.0 mm
01:30 AM 51.3°F10.7°C 50.2°F10.1°C 96% 1.6 mph SE2.6 kmh SE 4.5 mph7.2 kmh 30.26 in1024.7 mb 0.00 in0.0 mm 0.00 in/hr0.0 mm/hr 0.00 in0.0 mm
01:20 AM 51.3°F10.7°C 49.9°F9.9°C 95% 3.1 mph E5.0 kmh E 4.5 mph7.2 kmh 30.25 in1024.4 mb 0.00 in0.0 mm 0.00 in/hr0.0 mm/hr 0.00 in0.0 mm
01:10 AM 51.4°F10.8°C 50.1°F10.1°C 95% 1.6 mph E2.6 kmh E 3.8 mph6.1 kmh 30.25 in1024.4 mb 0.00 in0.0 mm 0.00 in/hr0.0 mm/hr 0.00 in0.0 mm
12:50 AM 52.2°F11.2°C 49.3°F9.6°C 90% 2.2 mph E3.5 kmh E 3.8 mph6.1 kmh 30.25 in1024.4 mb 0.00 in0.0 mm 0.00 in/hr0.0 mm/hr 0.00 in0.0 mm
12:40 AM 53.1°F11.7°C 49.0°F9.4°C 86% 2.2 mph E3.5 kmh E 3.8 mph6.1 kmh 30.25 in1024.4 mb 0.00 in0.0 mm 0.00 in/hr0.0 mm/hr 0.00 in0.0 mm
12:30 AM 56.1°F13.4°C 49.7°F9.8°C 79% 1.6 mph SE2.6 kmh SE 8.3 mph13.4 kmh 30.25 in1024.4 mb 0.00 in0.0 mm 0.00 in/hr0.0 mm/hr 0.00 in0.0 mm
12:20 AM 59.9°F15.5°C 52.0°F11.1°C 75% 6.0 mph SW9.7 kmh SW 9.8 mph15.8 kmh 30.25 in1024.4 mb 0.00 in0.0 mm 0.00 in/hr0.0 mm/hr 0.00 in0.0 mm
12:10 AM 60.1°F15.6°C 51.0°F10.6°C 72% 6.9 mph SW11.1 kmh SW 11.4 mph18.3 kmh 30.25 in1024.4 mb 0.00 in0.0 mm 0.00 in/hr0.0 mm/hr 0.00 in0.0 mm
12:00 AM 60.4°F15.8°C 53.6°F12.0°C 78% 6.0 mph SW9.7 kmh SW 12.1 mph19.5 kmh 30.25 in1024.4 mb 0.00 in0.0 mm 0.00 in/hr0.0 mm/hr 0.00 in0.0 mm